Time;durP1;ratioP1;P1;durP2;ratioP2;P2;SDS_P1;SDS_P2;PMS_P1;PMS_P2;Temp;Humidity;BMP_temperature;BMP_pressure;BME280_temperature;BME280_humidity;BME280_pressure;Samples;Min_cycle;Max_cycle;Signal;HPM_P1;HPM_P2
2022/04/25 00:00:49;;;;;;;7.13;6.50;;;;;;;6.15;100.00;95175.13;5018381;28;20509;-74
2022/04/25 00:03:16;;;;;;;8.60;7.80;;;;;;;6.14;100.00;95182.22;5035268;28;20467;-74
2022/04/25 00:05:42;;;;;;;7.00;6.30;;;;;;;6.00;100.00;95167.84;5034927;28;20431;-74
2022/04/25 00:08:09;;;;;;;7.00;6.40;;;;;;;5.88;100.00;95153.63;5034601;28;20514;-74
2022/04/25 00:10:35;;;;;;;8.03;7.30;;;;;;;5.92;100.00;95167.63;5052512;28;20450;-74
2022/04/25 00:13:02;;;;;;;6.60;6.00;;;;;;;5.89;100.00;95176.13;5011203;28;20493;-74
2022/04/25 00:15:29;;;;;;;7.10;6.40;;;;;;;6.03;100.00;95196.84;5031871;28;20545;-74
2022/04/25 00:17:56;;;;;;;6.50;5.90;;;;;;;5.87;100.00;95172.28;5034602;28;20454;-74
2022/04/25 00:20:23;;;;;;;8.20;6.40;;;;;;;5.85;100.00;95174.47;5051527;28;20952;-74
2022/04/25 00:22:49;;;;;;;6.83;6.13;;;;;;;5.89;100.00;95183.22;5052219;28;20526;-74
2022/04/25 00:25:16;;;;;;;6.40;5.90;;;;;;;5.86;100.00;95176.75;5052164;28;20946;-74
2022/04/25 00:27:43;;;;;;;6.73;6.07;;;;;;;5.86;100.00;95181.22;5052505;28;20462;-74
2022/04/25 00:30:10;;;;;;;6.73;6.10;;;;;;;6.06;100.00;95198.81;5033944;28;20463;-74
2022/04/25 00:32:37;;;;;;;6.00;5.50;;;;;;;6.16;100.00;95206.28;5050976;28;21032;-74
2022/04/25 00:35:06;;;;;;;6.20;5.70;;;;;;;5.99;100.00;95203.03;5034413;28;20435;-74
2022/04/25 00:37:33;;;;;;;6.00;5.43;;;;;;;5.71;100.00;95176.59;5044278;28;20491;-74
2022/04/25 00:40:00;;;;;;;6.17;5.57;;;;;;;5.64;100.00;95180.53;5040869;28;20562;-74
2022/04/25 00:42:26;;;;;;;7.23;6.43;;;;;;;5.72;100.00;95196.47;5036706;28;20482;-75
2022/04/25 00:44:53;;;;;;;6.83;6.13;;;;;;;5.58;100.00;95189.66;5036863;28;20442;-74
2022/04/25 00:47:20;;;;;;;7.30;6.60;;;;;;;5.78;100.00;95218.81;5035675;28;20546;-75
2022/04/25 00:49:47;;;;;;;7.00;6.30;;;;;;;5.37;100.00;95183.69;5050609;28;21008;-74
2022/04/25 00:52:14;;;;;;;6.80;6.07;;;;;;;5.57;100.00;95197.84;5034398;28;20550;-74
2022/04/25 00:54:41;;;;;;;6.80;6.20;;;;;;;5.46;100.00;95186.22;5050812;28;20430;-74
2022/04/25 00:57:09;;;;;;;6.20;5.70;;;;;;;5.52;100.00;95198.06;5033891;28;20500;-74
2022/04/25 00:59:36;;;;;;;7.10;6.40;;;;;;;5.39;100.00;95185.97;5033809;28;20476;-74
2022/04/25 01:02:04;;;;;;;8.00;7.30;;;;;;;5.21;100.00;95178.25;5034083;28;20490;-74
2022/04/25 01:04:32;;;;;;;8.07;7.30;;;;;;;5.30;100.00;95209.63;5033775;28;20518;-75
2022/04/25 01:06:59;;;;;;;6.63;6.00;;;;;;;5.21;100.00;95193.97;5050587;28;20459;-74
2022/04/25 01:09:26;;;;;;;7.53;6.80;;;;;;;5.25;100.00;95210.59;5050214;28;20509;-74
2022/04/25 01:11:52;;;;;;;6.83;6.13;;;;;;;5.26;100.00;95216.59;5051739;28;20882;-74
2022/04/25 01:14:21;;;;;;;8.50;7.70;;;;;;;5.18;100.00;95199.06;5033857;28;20453;-74
2022/04/25 01:16:48;;;;;;;7.73;7.10;;;;;;;5.20;100.00;95196.91;5041714;28;20533;-74
2022/04/25 01:19:15;;;;;;;9.03;8.00;;;;;;;5.26;100.00;95183.31;5033232;28;20498;-74
2022/04/25 01:21:49;;;;;;;9.70;7.37;;;;;;;5.40;100.00;95227.59;5049966;28;20943;-74
2022/04/25 01:27:17;;;;;;;7.67;6.97;;;;;;;4.97;100.00;95180.75;5050080;28;20562;-74
2022/04/25 01:29:49;;;;;;;8.27;7.53;;;;;;;5.39;100.00;95227.91;5051062;28;20787;-74
2022/04/25 01:32:17;;;;;;;7.57;6.87;;;;;;;4.71;100.00;95139.78;5033392;28;20446;-74
2022/04/25 01:34:44;;;;;;;6.90;6.30;;;;;;;5.31;100.00;95230.25;5049944;28;20946;-74
2022/04/25 01:37:13;;;;;;;7.73;7.03;;;;;;;5.12;100.00;95206.38;5051259;28;20768;-74
2022/04/25 01:39:45;;;;;;;8.90;8.03;;;;;;;4.88;100.00;95199.13;5033376;28;20459;-74
2022/04/25 01:42:12;;;;;;;8.40;7.60;;;;;;;5.24;100.00;95237.88;5033309;28;20985;-74
2022/04/25 01:44:39;;;;;;;8.70;7.80;;;;;;;5.27;100.00;95245.09;5033014;28;20440;-74
2022/04/25 01:47:07;;;;;;;8.33;7.60;;;;;;;5.25;100.00;95241.28;5029875;28;20679;-74
2022/04/25 01:49:35;;;;;;;8.13;7.43;;;;;;;5.23;100.00;95219.84;5033227;28;20482;-74
2022/04/25 01:52:05;;;;;;;9.33;8.43;;;;;;;5.04;100.00;95212.41;5033496;28;20578;-74
2022/04/25 01:54:32;;;;;;;8.37;7.57;;;;;;;5.25;100.00;95218.44;5051305;28;20466;-74
2022/04/25 01:57:02;;;;;;;8.20;7.40;;;;;;;4.99;100.00;95216.00;5033490;28;20929;-74
2022/04/25 01:59:30;;;;;;;9.30;8.40;;;;;;;5.07;100.00;95235.34;5032957;28;20520;-74
2022/04/25 02:02:00;;;;;;;9.13;8.30;;;;;;;5.11;100.00;95245.97;5033162;28;20806;-74
2022/04/25 02:04:27;;;;;;;10.13;7.83;;;;;;;4.96;100.00;95228.97;5033244;28;20912;-74
2022/04/25 02:06:54;;;;;;;10.63;8.57;;;;;;;4.77;100.00;95194.56;5033551;28;21019;-74
2022/04/25 02:09:21;;;;;;;10.90;10.00;;;;;;;4.83;100.00;95212.41;5033389;28;20511;-74
2022/04/25 02:11:47;;;;;;;10.93;9.80;;;;;;;5.18;100.00;95257.47;5033751;28;20487;-74
2022/04/25 02:14:14;;;;;;;10.40;9.40;;;;;;;5.10;100.00;95242.59;5036786;28;20442;-74
2022/04/25 02:16:41;;;;;;;10.27;9.27;;;;;;;4.82;100.00;95183.91;5033188;28;20463;-74
2022/04/25 02:19:08;;;;;;;10.23;9.33;;;;;;;5.08;100.00;95215.19;5033141;28;21040;-74
2022/04/25 02:21:35;;;;;;;10.57;9.47;;;;;;;5.13;100.00;95218.38;5033265;28;20466;-74
2022/04/25 02:24:02;;;;;;;10.20;9.30;;;;;;;5.41;100.00;95257.19;5033313;28;20439;-74
2022/04/25 02:26:29;;;;;;;13.70;10.33;;;;;;;5.13;100.00;95217.59;5051279;28;20431;-74
2022/04/25 02:28:56;;;;;;;9.53;8.63;;;;;;;5.27;100.00;95226.75;5033242;28;20495;-74
2022/04/25 02:31:26;;;;;;;11.30;10.07;;;;;;;5.35;100.00;95240.91;5052187;28;20535;-74
2022/04/25 02:33:52;;;;;;;9.80;9.00;;;;;;;5.24;100.00;95227.41;5030703;28;20431;-74
2022/04/25 02:36:19;;;;;;;10.23;9.23;;;;;;;5.44;100.00;95259.16;5025399;28;20437;-74
2022/04/25 02:38:46;;;;;;;10.73;9.63;;;;;;;4.84;100.00;95181.75;5051059;28;20435;-74
2022/04/25 02:41:12;;;;;;;9.10;8.20;;;;;;;5.29;100.00;95255.25;5049598;28;20528;-74
2022/04/25 02:43:42;;;;;;;9.47;8.57;;;;;;;5.45;100.00;95258.06;5054307;28;20445;-74
2022/04/25 02:46:11;;;;;;;10.40;9.40;;;;;;;5.31;100.00;95245.97;5036842;28;20792;-74
2022/04/25 02:48:40;;;;;;;9.60;8.60;;;;;;;5.31;100.00;95250.47;5036465;28;20556;-74
2022/04/25 02:51:08;;;;;;;9.13;8.30;;;;;;;5.25;100.00;95247.28;5036400;28;20972;-74
2022/04/25 02:53:36;;;;;;;12.13;10.87;;;;;;;5.31;100.00;95251.22;5036766;28;20938;-74
2022/04/25 02:56:03;;;;;;;9.53;8.60;;;;;;;5.32;100.00;95262.47;5054435;28;20427;-74
2022/04/25 02:58:31;;;;;;;10.00;9.00;;;;;;;5.51;100.00;95275.94;5054941;28;20423;-74
2022/04/25 03:00:57;;;;;;;9.67;8.77;;;;;;;5.48;100.00;95270.56;5036833;28;20454;-74
2022/04/25 03:03:25;;;;;;;10.47;9.47;;;;;;;5.41;100.00;95278.91;5036463;28;20443;-74
2022/04/25 03:05:54;;;;;;;9.93;8.93;;;;;;;5.43;100.00;95268.13;5042021;28;20516;-74
2022/04/25 03:08:23;;;;;;;11.13;9.93;;;;;;;5.46;100.00;95281.34;5037644;28;20465;-74
2022/04/25 03:10:54;;;;;;;9.90;8.90;;;;;;;5.54;100.00;95287.63;5037505;28;20493;-74
2022/04/25 03:13:22;;;;;;;9.40;8.50;;;;;;;5.48;100.00;95288.91;5037646;28;20534;-74
2022/04/25 03:15:48;;;;;;;10.20;9.23;;;;;;;5.49;100.00;95291.22;5037745;28;20434;-74
2022/04/25 03:18:19;;;;;;;10.03;9.13;;;;;;;5.43;100.00;95278.59;5038092;28;20439;-74
2022/04/25 03:20:48;;;;;;;9.90;9.00;;;;;;;5.50;100.00;95294.59;5037733;28;20494;-74
2022/04/25 03:23:19;;;;;;;10.77;9.67;;;;;;;5.31;100.00;95266.19;5027736;28;20561;-74
2022/04/25 03:25:47;;;;;;;10.47;9.47;;;;;;;4.98;100.00;95206.59;5052502;28;20428;-74
2022/04/25 03:28:14;;;;;;;11.53;10.53;;;;;;;5.68;100.00;95288.13;5038451;28;20494;-74
2022/04/25 03:30:41;;;;;;;11.00;10.00;;;;;;;5.62;100.00;95303.31;5057174;28;20462;-74
2022/04/25 03:33:12;;;;;;;11.37;10.27;;;;;;;5.58;100.00;95272.78;5038738;28;20446;-74
2022/04/25 03:35:40;;;;;;;10.23;9.23;;;;;;;5.88;100.00;95312.84;5040440;28;20448;-74
2022/04/25 03:38:08;;;;;;;11.23;10.20;;;;;;;5.78;100.00;95297.47;5041507;28;20442;-74
2022/04/25 03:40:35;;;;;;;14.20;10.10;;;;;;;5.61;100.00;95319.34;5045678;28;20494;-74
2022/04/25 03:43:06;;;;;;;12.67;11.40;;;;;;;5.64;100.00;95314.25;5041142;28;20881;-74
2022/04/25 03:45:34;;;;;;;12.33;11.13;;;;;;;5.54;100.00;95312.00;5058952;28;20431;-74
2022/04/25 03:48:01;;;;;;;13.20;11.80;;;;;;;5.60;100.00;95317.78;5036855;28;20459;-74
2022/04/25 03:50:28;;;;;;;12.00;10.80;;;;;;;5.33;100.00;95264.78;5041268;28;20466;-74
2022/04/25 03:52:55;;;;;;;13.10;11.03;;;;;;;5.38;100.00;95284.81;5045676;28;20423;-74
2022/04/25 03:58:07;;;;;;;16.30;13.27;;;;;;;5.54;100.00;95322.47;5038731;28;20439;-74
2022/04/25 04:00:35;;;;;;;12.73;11.47;;;;;;;5.48;100.00;95315.13;5052692;28;20447;-74
2022/04/25 04:03:02;;;;;;;14.63;13.23;;;;;;;5.34;100.00;95310.09;5034470;28;20440;-74
2022/04/25 04:05:30;;;;;;;13.57;12.17;;;;;;;5.47;100.00;95327.44;5034594;28;20938;-74
2022/04/25 04:07:57;;;;;;;14.77;13.37;;;;;;;5.36;100.00;95296.69;5052190;28;20534;-74
2022/04/25 04:10:23;;;;;;;14.93;13.43;;;;;;;5.22;100.00;95291.69;5034235;28;20456;-74
2022/04/25 04:12:50;;;;;;;15.47;13.80;;;;;;;5.53;100.00;95336.66;5034088;28;20551;-74
2022/04/25 04:15:17;;;;;;;14.87;13.20;;;;;;;5.42;100.00;95334.72;5052142;28;20438;-74
2022/04/25 04:17:44;;;;;;;15.37;13.77;;;;;;;5.29;100.00;95305.81;5051788;28;20424;-74
2022/04/25 04:20:12;;;;;;;15.67;14.17;;;;;;;5.39;100.00;95319.63;5033863;28;21002;-74
2022/04/25 04:22:40;;;;;;;15.13;13.57;;;;;;;5.51;100.00;95348.56;5033871;28;20501;-74
2022/04/25 04:25:12;;;;;;;16.53;14.80;;;;;;;5.40;100.00;95334.28;5034096;28;20446;-75
2022/04/25 04:27:41;;;;;;;15.67;14.20;;;;;;;5.21;100.00;95311.88;5034272;28;20456;-74
2022/04/25 04:30:13;;;;;;;15.33;13.73;;;;;;;5.37;100.00;95333.06;5034386;28;20558;-74
2022/04/25 04:32:41;;;;;;;17.03;14.70;;;;;;;5.47;100.00;95337.16;5033923;28;20444;-74
2022/04/25 04:35:10;;;;;;;31.60;23.70;;;;;;;5.44;100.00;95340.41;5038441;28;20452;-74
2022/04/25 04:37:37;;;;;;;101.30;78.10;;;;;;;5.62;100.00;95361.00;5033790;28;20481;-74
2022/04/25 04:42:53;;;;;;;14.50;12.97;;;;;;;5.70;100.00;95367.25;5050350;28;20471;-74
2022/04/25 04:45:20;;;;;;;15.30;13.80;;;;;;;5.57;100.00;95352.53;5033598;28;20432;-74
2022/04/25 04:47:46;;;;;;;16.70;15.10;;;;;;;5.55;100.00;95344.97;5033472;28;20451;-74
2022/04/25 04:50:14;;;;;;;16.27;14.53;;;;;;;5.81;100.00;95384.16;5051430;28;20541;-74
2022/04/25 04:52:47;;;;;;;14.77;13.27;;;;;;;5.71;100.00;95350.44;5034579;28;20489;-73
2022/04/25 04:55:14;;;;;;;14.43;12.93;;;;;;;5.76;100.00;95366.00;5052651;28;20771;-73
2022/04/25 04:57:42;;;;;;;15.93;14.23;;;;;;;5.99;100.00;95391.94;5033361;28;20489;-73
2022/04/25 05:00:10;;;;;;;15.43;13.90;;;;;;;5.91;100.00;95394.31;5033484;28;20868;-73
2022/04/25 05:02:37;;;;;;;18.20;13.43;;;;;;;5.88;100.00;95389.66;5033600;28;20474;-73
2022/04/25 05:05:04;;;;;;;15.43;13.93;;;;;;;5.82;100.00;95364.69;5050644;28;20518;-73
2022/04/25 05:07:31;;;;;;;15.23;13.73;;;;;;;5.84;100.00;95388.75;5033368;28;20617;-73
2022/04/25 05:09:58;;;;;;;13.80;12.50;;;;;;;5.93;100.00;95394.75;5033525;28;20874;-73
2022/04/25 05:12:27;;;;;;;15.07;13.57;;;;;;;5.87;100.00;95382.88;5033793;28;20482;-74
2022/04/25 05:14:54;;;;;;;16.23;14.50;;;;;;;6.07;100.00;95381.38;5052332;28;20461;-74
2022/04/25 05:17:22;;;;;;;15.23;13.60;;;;;;;5.93;100.00;95380.88;5034092;28;20431;-74
2022/04/25 05:19:49;;;;;;;14.70;13.13;;;;;;;6.06;100.00;95390.34;5033260;28;20474;-74
2022/04/25 05:22:16;;;;;;;14.77;13.27;;;;;;;6.27;100.00;95406.06;5033395;28;20437;-74
2022/04/25 05:24:43;;;;;;;14.77;13.10;;;;;;;6.41;100.00;95413.69;5050991;28;20481;-73
2022/04/25 05:27:11;;;;;;;13.57;12.30;;;;;;;6.46;100.00;95400.38;5032963;28;20948;-73
2022/04/25 05:29:37;;;;;;;13.63;12.33;;;;;;;6.58;100.00;95404.91;5032874;28;21013;-73
2022/04/25 05:32:05;;;;;;;12.50;11.27;;;;;;;6.65;100.00;95436.66;5033226;28;20440;-74
2022/04/25 05:34:37;;;;;;;13.70;12.40;;;;;;;6.63;100.00;95438.84;5050950;28;20954;-74
2022/04/25 05:37:03;;;;;;;14.07;12.37;;;;;;;6.33;100.00;95412.69;5032926;28;20478;-74
2022/04/25 05:39:32;;;;;;;14.30;12.80;;;;;;;6.47;100.00;95441.28;5032787;28;20887;-74
2022/04/25 05:42:03;;;;;;;13.33;11.97;;;;;;;6.53;100.00;95427.63;5032875;28;20445;-74
2022/04/25 05:44:30;;;;;;;15.07;11.97;;;;;;;6.43;100.00;95420.16;5050822;28;20948;-74
2022/04/25 05:46:57;;;;;;;13.03;11.73;;;;;;;6.35;100.00;95423.63;5033095;28;20451;-74
2022/04/25 05:52:10;;;;;;;13.80;12.40;;;;;;;6.81;100.00;95456.78;5037642;28;20440;-74
2022/04/25 05:54:44;;;;;;;12.90;11.70;;;;;;;6.59;100.00;95462.34;5049957;28;20772;-74
2022/04/25 05:57:11;;;;;;;12.80;11.50;;;;;;;6.60;100.00;95466.53;5032986;28;20951;-74
2022/04/25 05:59:38;;;;;;;14.80;13.37;;;;;;;6.57;100.00;95471.66;5032706;28;20541;-74
2022/04/25 06:02:04;;;;;;;14.30;12.80;;;;;;;6.26;100.00;95443.91;5032749;28;20534;-74
2022/04/25 06:04:31;;;;;;;16.10;12.50;;;;;;;6.37;100.00;95447.69;5032968;28;20506;-74
2022/04/25 06:06:59;;;;;;;14.10;12.70;;;;;;;6.33;100.00;95449.44;5032945;28;20530;-74
2022/04/25 06:09:26;;;;;;;14.60;13.10;;;;;;;6.49;100.00;95479.25;5032494;28;20483;-74
2022/04/25 06:11:53;;;;;;;15.20;12.23;;;;;;;6.41;100.00;95445.19;5032826;28;20438;-74
2022/04/25 06:14:21;;;;;;;15.00;13.50;;;;;;;6.55;100.00;95486.97;5033242;28;20493;-74
2022/04/25 06:16:48;;;;;;;14.23;12.73;;;;;;;6.57;100.00;95495.28;5035607;28;20492;-74
2022/04/25 06:19:15;;;;;;;14.57;12.50;;;;;;;6.61;100.00;95496.94;5036276;28;20561;-74
2022/04/25 06:21:42;;;;;;;14.70;13.30;;;;;;;6.80;100.00;95497.25;5036460;28;20539;-74
2022/04/25 06:24:09;;;;;;;13.43;12.17;;;;;;;6.87;100.00;95496.72;5036959;28;20500;-74
2022/04/25 06:26:36;;;;;;;13.17;11.80;;;;;;;6.57;100.00;95472.41;5037052;28;21105;-74
2022/04/25 06:29:03;;;;;;;12.97;11.57;;;;;;;6.88;100.00;95481.75;5036227;28;21063;-74
2022/04/25 06:31:30;;;;;;;15.53;12.70;;;;;;;6.96;100.00;95494.03;5036805;28;20445;-75
2022/04/25 06:33:58;;;;;;;12.57;11.20;;;;;;;6.84;100.00;95460.59;5036751;28;20436;-74
2022/04/25 06:36:25;;;;;;;13.10;11.87;;;;;;;6.75;100.00;95484.31;5037123;28;20439;-74
2022/04/25 06:38:52;;;;;;;13.47;12.07;;;;;;;6.96;100.00;95497.44;5054391;28;20518;-74
2022/04/25 06:41:18;;;;;;;13.40;10.90;;;;;;;6.87;100.00;95486.22;5036442;28;20863;-74
2022/04/25 06:43:45;;;;;;;13.93;11.80;;;;;;;6.81;100.00;95492.75;5036678;28;20450;-74
2022/04/25 06:46:12;;;;;;;13.83;12.57;;;;;;;7.01;100.00;95536.66;5036515;28;20457;-74
2022/04/25 06:48:39;;;;;;;12.73;11.40;;;;;;;7.02;100.00;95534.78;5039973;28;20481;-74
2022/04/25 06:51:05;;;;;;;13.27;11.87;;;;;;;7.09;100.00;95527.94;5036547;28;20558;-75
2022/04/25 06:53:32;;;;;;;13.40;12.10;;;;;;;7.07;100.00;95529.31;5036961;28;20534;-74
2022/04/25 06:55:58;;;;;;;13.80;12.40;;;;;;;7.05;100.00;95511.25;5054446;28;20440;-74
2022/04/25 06:58:26;;;;;;;14.17;12.70;;;;;;;7.01;100.00;95541.91;5054688;28;20981;-74
2022/04/25 07:00:53;;;;;;;13.60;11.33;;;;;;;7.04;100.00;95543.09;5033037;28;20460;-74
2022/04/25 07:03:28;;;;;;;13.80;12.30;;;;;;;6.77;100.00;95515.50;5036487;28;20537;-74
2022/04/25 07:05:56;;;;;;;12.27;10.97;;;;;;;6.98;100.00;95521.53;5036282;28;20868;-74
2022/04/25 07:08:22;;;;;;;13.83;12.53;;;;;;;6.90;100.00;95514.47;5036488;28;20550;-74
2022/04/25 07:10:49;;;;;;;13.53;12.20;;;;;;;6.80;100.00;95510.38;5036635;28;20447;-74
2022/04/25 07:13:17;;;;;;;13.60;12.20;;;;;;;7.11;100.00;95541.50;5037840;28;20462;-75
2022/04/25 07:15:44;;;;;;;13.13;11.83;;;;;;;6.98;100.00;95531.28;5068273;28;20427;-74
2022/04/25 07:18:13;;;;;;;12.43;11.17;;;;;;;7.02;100.00;95564.47;5049322;28;20469;-74
2022/04/25 07:20:39;;;;;;;12.90;11.60;;;;;;;6.99;100.00;95570.38;5053849;28;20499;-74
2022/04/25 07:28:50;;;;;;;13.50;12.10;;;;;;;7.09;100.00;95551.59;4981831;28;20509;-74
2022/04/25 07:31:17;;;;;;;12.17;10.87;;;;;;;7.32;100.00;95574.88;5051895;28;20501;-74
2022/04/25 07:33:45;;;;;;;12.30;11.17;;;;;;;7.27;100.00;95588.22;5035031;28;20505;-74
2022/04/25 07:36:14;;;;;;;11.97;10.77;;;;;;;7.18;100.00;95574.38;5053112;28;20944;-74
2022/04/25 07:38:45;;;;;;;12.30;11.10;;;;;;;7.24;100.00;95583.63;5035093;28;20447;-74
2022/04/25 07:41:13;;;;;;;12.93;11.63;;;;;;;7.17;100.00;95567.59;5034906;28;20955;-74
2022/04/25 07:43:40;;;;;;;11.80;10.70;;;;;;;7.23;100.00;95593.38;5035216;28;20953;-74
2022/04/25 07:46:07;;;;;;;12.27;11.10;;;;;;;7.00;100.00;95577.16;5018476;28;20607;-74
2022/04/25 07:48:34;;;;;;;11.33;10.23;;;;;;;6.91;100.00;95565.94;5034608;28;20555;-74
2022/04/25 07:51:01;;;;;;;10.17;9.17;;;;;;;6.64;100.00;95535.69;5018278;28;20487;-74
2022/04/25 07:53:30;;;;;;;12.63;11.40;;;;;;;6.95;100.00;95577.34;5035172;28;20438;-74
2022/04/25 07:55:57;;;;;;;12.37;11.10;;;;;;;7.02;100.00;95588.13;5052614;28;20434;-74
2022/04/25 07:58:24;;;;;;;13.37;11.97;;;;;;;6.91;100.00;95583.56;5034611;28;20443;-74
2022/04/25 08:00:51;;;;;;;12.30;11.10;;;;;;;6.93;100.00;95603.16;5052327;28;20542;-74
2022/04/25 08:03:25;;;;;;;13.20;11.90;;;;;;;6.72;100.00;95589.25;5034465;28;20939;-74
2022/04/25 08:05:51;;;;;;;14.20;12.80;;;;;;;6.70;100.00;95592.22;5017962;28;20436;-74
2022/04/25 08:08:18;;;;;;;14.03;12.10;;;;;;;6.92;100.00;95620.03;5034393;28;20530;-74
2022/04/25 08:10:45;;;;;;;14.40;13.00;;;;;;;6.76;100.00;95584.91;5034966;28;20549;-74
2022/04/25 08:18:42;;;;;;;13.27;11.87;;;;;;;7.16;100.00;95635.16;5033955;28;20436;-74
2022/04/25 08:21:10;;;;;;;14.93;13.17;;;;;;;7.28;100.00;95644.97;5052290;28;20459;-74
2022/04/25 08:23:36;;;;;;;13.70;12.30;;;;;;;7.04;100.00;95612.22;5034170;28;20871;-74
2022/04/25 08:26:03;;;;;;;17.17;13.77;;;;;;;6.80;100.00;95598.94;5050815;28;20446;-74
2022/04/25 08:28:30;;;;;;;17.50;15.83;;;;;;;6.91;100.00;95613.22;5034083;28;20460;-74
2022/04/25 08:31:17;;;;;;;16.40;14.70;;;;;;;6.93;100.00;95623.41;5033944;28;20531;-74
2022/04/25 08:33:48;;;;;;;15.03;13.43;;;;;;;7.18;100.00;95659.25;5033803;28;20571;-74
2022/04/25 08:36:16;;;;;;;14.27;12.87;;;;;;;6.95;100.00;95611.53;5033893;28;20846;-74
2022/04/25 08:38:43;;;;;;;14.43;12.93;;;;;;;6.94;100.00;95624.94;5034916;28;20439;-74
2022/04/25 08:41:12;;;;;;;15.93;14.40;;;;;;;6.94;100.00;95633.59;5034068;28;20989;-74
2022/04/25 08:43:40;;;;;;;15.97;14.30;;;;;;;7.17;100.00;95662.22;5034773;28;20967;-74
2022/04/25 08:46:09;;;;;;;16.67;15.10;;;;;;;7.17;100.00;95660.34;5034620;28;20432;-74
2022/04/25 08:48:39;;;;;;;16.50;14.67;;;;;;;7.33;100.00;95678.94;5051124;28;20516;-74
2022/04/25 08:51:07;;;;;;;15.27;13.70;;;;;;;7.27;100.00;95674.97;5034268;28;20994;-75
2022/04/25 08:53:37;;;;;;;15.60;13.97;;;;;;;7.24;100.00;95676.41;5035667;28;20439;-75
2022/04/25 08:56:06;;;;;;;16.80;15.00;;;;;;;7.26;100.00;95665.56;5034301;28;20427;-75
2022/04/25 08:58:36;;;;;;;18.47;14.97;;;;;;;7.44;100.00;95682.75;5034167;28;20454;-74
2022/04/25 09:01:03;;;;;;;17.60;14.30;;;;;;;7.44;100.00;95690.63;5035326;28;20546;-74
2022/04/25 09:03:30;;;;;;;21.93;14.40;;;;;;;7.29;100.00;95686.72;5034080;28;20477;-74
2022/04/25 09:05:58;;;;;;;16.40;13.13;;;;;;;7.04;100.00;95675.28;5035584;28;20431;-74
2022/04/25 09:08:24;;;;;;;14.47;13.07;;;;;;;6.96;100.00;95655.09;5054208;28;20919;-74
2022/04/25 09:12:09;;;;;;;13.60;12.33;;;;;;;7.06;100.00;95667.06;5035615;28;20483;-75
2022/04/25 09:13:39;;;;;;;13.40;12.10;;;;;;;7.15;100.00;95703.81;5051782;28;20445;-75
2022/04/25 09:16:16;;;;;;;12.90;11.60;;;;;;;7.05;100.00;95662.91;5033814;28;20535;-75
2022/04/25 09:18:43;;;;;;;12.63;11.43;;;;;;;7.24;100.00;95683.53;5051469;28;20431;-75
2022/04/25 09:21:14;;;;;;;12.93;11.60;;;;;;;7.23;100.00;95685.38;5033812;28;20537;-75
2022/04/25 09:23:41;;;;;;;12.70;11.50;;;;;;;7.40;100.00;95685.25;5035344;28;20537;-75
2022/04/25 09:26:15;;;;;;;13.37;11.70;;;;;;;7.80;100.00;95721.59;5033987;28;20447;-75
2022/04/25 09:28:46;;;;;;;13.23;11.70;;;;;;;7.82;100.00;95706.25;5033511;28;20435;-75
2022/04/25 09:31:14;;;;;;;13.07;11.77;;;;;;;7.75;100.00;95681.56;5035823;28;20424;-75
2022/04/25 09:33:41;;;;;;;10.60;9.60;;;;;;;8.18;100.00;95724.03;5033789;28;20543;-75
2022/04/25 09:36:09;;;;;;;11.87;10.63;;;;;;;8.04;100.00;95713.03;5050166;28;20577;-75
2022/04/25 09:38:38;;;;;;;12.63;11.40;;;;;;;7.94;100.00;95708.16;5033830;28;20771;-75
2022/04/25 09:41:09;;;;;;;12.30;11.10;;;;;;;7.89;100.00;95729.44;5051959;28;20457;-75
2022/04/25 09:43:41;;;;;;;11.07;9.97;;;;;;;7.84;100.00;95730.38;5034876;28;20424;-74
2022/04/25 09:46:10;;;;;;;11.60;10.40;;;;;;;8.05;100.00;95737.50;5051975;28;20466;-74
2022/04/25 09:48:39;;;;;;;10.27;9.33;;;;;;;7.67;100.00;95707.63;5033847;28;20875;-73
2022/04/25 09:51:17;;;;;;;13.23;11.93;;;;;;;8.07;100.00;95740.56;5034733;28;20465;-74
2022/04/25 09:53:49;;;;;;;11.27;10.23;;;;;;;8.08;100.00;95742.88;5037888;28;20493;-74
2022/04/25 09:56:18;;;;;;;11.50;10.40;;;;;;;7.63;100.00;95721.75;5041302;28;20447;-74
2022/04/25 09:59:07;;;;;;;11.27;10.13;;;;;;;7.75;100.00;95734.19;5037681;28;20478;-74
2022/04/25 10:01:39;;;;;;;11.23;9.63;;;;;;;7.49;100.00;95682.56;5024318;28;20443;-73
2022/04/25 10:04:32;;;;;;;11.50;10.40;;;;;;;7.79;100.00;95754.28;5037545;28;20459;-73
2022/04/25 10:07:10;;;;;;;19.30;17.50;;;;;;;7.51;100.00;95725.09;5037609;28;20475;-73
2022/04/25 10:10:12;;;;;;;18.07;16.27;;;;;;;7.62;100.00;95751.78;5040631;28;20485;-74
2022/04/25 10:12:48;;;;;;;13.93;12.60;;;;;;;7.71;100.00;95737.44;5023756;28;20451;-73
2022/04/25 10:15:15;;;;;;;9.47;8.53;;;;;;;7.67;100.00;95739.19;5045385;28;20442;-73
2022/04/25 10:17:42;;;;;;;12.20;10.13;;;;;;;7.66;100.00;95736.88;5040051;28;20431;-73
2022/04/25 10:20:09;;;;;;;9.97;8.97;;;;;;;8.02;100.00;95764.47;5047759;28;20507;-74
2022/04/25 10:22:36;;;;;;;9.37;8.57;;;;;;;7.95;100.00;95772.88;5037735;28;20493;-74
2022/04/25 10:25:03;;;;;;;9.63;8.60;;;;;;;7.86;100.00;95764.28;5037710;28;20473;-74
2022/04/25 10:27:34;;;;;;;8.97;8.17;;;;;;;7.86;100.00;95762.41;5038735;28;20996;-74
2022/04/25 10:30:09;;;;;;;10.07;9.00;;;;;;;8.02;100.00;95761.84;5038483;28;20522;-74
2022/04/25 10:32:36;;;;;;;9.20;8.33;;;;;;;7.93;100.00;95746.09;5054950;28;20453;-73
2022/04/25 10:35:04;;;;;;;10.10;8.77;;;;;;;8.00;100.00;95752.38;5058135;28;20439;-73
2022/04/25 10:37:43;;;;;;;8.73;7.93;;;;;;;7.98;100.00;95765.09;5037834;28;20519;-74
2022/04/25 10:40:14;;;;;;;9.20;8.33;;;;;;;8.15;100.00;95756.31;5037239;28;20495;-73
2022/04/25 10:44:19;;;;;;;10.30;8.57;;;;;;;8.72;100.00;95754.81;5037126;28;21012;-73
2022/04/25 10:46:15;;;;;;;10.63;9.60;;;;;;;8.57;100.00;95749.06;5023713;28;20447;-73
2022/04/25 10:49:05;;;;;;;10.80;9.80;;;;;;;8.63;100.00;95762.03;5013525;28;20501;-73
2022/04/25 10:51:40;;;;;;;9.17;8.37;;;;;;;8.80;100.00;95757.31;5017636;28;20529;-74
2022/04/25 10:54:08;;;;;;;7.17;6.57;;;;;;;8.91;100.00;95767.44;5044907;28;20431;-74
2022/04/25 10:56:35;;;;;;;7.43;6.83;;;;;;;8.73;100.00;95751.84;5054469;28;20614;-74
2022/04/25 10:59:21;;;;;;;7.43;6.77;;;;;;;8.98;100.00;95772.94;5054572;28;20486;-74
2022/04/25 11:01:49;;;;;;;9.10;8.23;;;;;;;8.99;100.00;95774.50;5035998;28;21026;-74
2022/04/25 11:04:18;;;;;;;8.20;7.50;;;;;;;9.26;100.00;95778.34;5035854;28;20443;-73
2022/04/25 11:06:47;;;;;;;7.77;6.37;;;;;;;9.39;100.00;95774.59;5037483;28;20802;-73
2022/04/25 11:09:38;;;;;;;7.83;7.20;;;;;;;9.87;100.00;95776.34;5039862;28;20503;-74
2022/04/25 11:12:05;;;;;;;7.40;6.70;;;;;;;9.53;100.00;95740.69;5036423;28;20539;-73
2022/04/25 11:14:32;;;;;;;6.17;5.67;;;;;;;9.70;100.00;95789.81;5036119;28;20444;-74
2022/04/25 11:17:13;;;;;;;5.20;4.70;;;;;;;9.85;100.00;95777.78;5036574;28;20479;-73
2022/04/25 11:19:54;;;;;;;6.63;6.00;;;;;;;9.97;100.00;95791.72;5036080;28;20459;-73
2022/04/25 11:22:35;;;;;;;6.30;5.70;;;;;;;9.70;100.00;95792.47;5036099;28;20501;-73
2022/04/25 11:25:24;;;;;;;6.30;5.80;;;;;;;9.68;100.00;95807.88;5036108;28;20977;-73
2022/04/25 11:28:04;;;;;;;6.80;6.30;;;;;;;9.45;100.00;95800.41;5036074;28;20446;-73
2022/04/25 11:30:31;;;;;;;5.30;4.80;;;;;;;9.39;100.00;95800.97;5035932;28;20481;-73
2022/04/25 11:33:02;;;;;;;4.83;4.43;;;;;;;9.45;100.00;95813.59;5035431;28;20483;-73
2022/04/25 11:35:29;;;;;;;4.67;4.27;;;;;;;9.42;100.00;95795.78;5035789;28;20447;-73
2022/04/25 11:37:57;;;;;;;5.03;4.50;;;;;;;9.87;100.00;95810.66;5035552;28;20462;-73
2022/04/25 11:40:24;;;;;;;4.77;4.00;;;;;;;9.94;100.00;95813.53;5035653;28;20498;-73
2022/04/25 11:42:51;;;;;;;3.90;3.60;;;;;;;9.60;100.00;95785.00;5035901;28;20448;-73
2022/04/25 11:45:17;;;;;;;4.77;4.37;;;;;;;9.64;100.00;95791.16;5035621;28;20535;-73
2022/04/25 11:47:44;;;;;;;4.50;4.20;;;;;;;9.71;100.00;95804.56;5032366;28;20440;-74
2022/04/25 11:50:11;;;;;;;3.70;3.40;;;;;;;9.78;100.00;95826.66;5035434;28;20483;-74
2022/04/25 11:53:06;;;;;;;3.70;3.40;;;;;;;9.88;100.00;95830.72;5038770;28;20955;-73
2022/04/25 11:55:35;;;;;;;4.37;4.00;;;;;;;9.74;100.00;95815.19;5016824;28;20535;-73